Time;durP1;ratioP1;P1;durP2;ratioP2;P2;SDS_P1;SDS_P2;PMS_P1;PMS_P2;Temp;Humidity;BMP_temperature;BMP_pressure;BME280_temperature;BME280_humidity;BME280_pressure;Samples;Min_cycle;Max_cycle;Signal;HPM_P1;HPM_P2
2024/04/01 00:00:39;;;;;;;22.00;4.40;;;;;;;15.82;62.68;97496.98;109573;1253;59810;-73
2024/04/01 00:03:26;;;;;;;29.90;8.20;;;;;;;15.76;62.60;97497.07;109471;1253;59754;-74
2024/04/01 00:05:54;;;;;;;24.40;5.20;;;;;;;15.68;62.60;97493.52;109536;1255;66587;-74
2024/04/01 00:08:21;;;;;;;25.60;4.50;;;;;;;15.60;62.71;97489.36;109530;1253;59752;-73
2024/04/01 00:10:48;;;;;;;25.60;4.50;;;;;;;15.51;62.87;97488.60;109096;1253;63884;-74
2024/04/01 00:13:20;;;;;;;24.30;4.30;;;;;;;15.43;63.25;97492.11;109507;1253;60102;-73
2024/04/01 00:15:47;;;;;;;20.70;4.00;;;;;;;15.37;63.48;97494.90;109515;1254;60162;-74
2024/04/01 00:18:13;;;;;;;24.60;4.50;;;;;;;15.29;63.47;97489.20;109496;1253;65292;-74
2024/04/01 00:20:40;;;;;;;22.20;4.50;;;;;;;15.19;63.52;97488.10;109538;1253;60005;-73
2024/04/01 00:23:06;;;;;;;23.40;4.30;;;;;;;15.10;63.59;97484.70;109489;1253;60093;-74
2024/04/01 00:25:33;;;;;;;29.60;5.20;;;;;;;15.01;63.74;97481.55;109468;1254;59765;-73
2024/04/01 00:28:00;;;;;;;26.10;4.70;;;;;;;14.92;64.22;97485.27;109037;1253;59879;-73
2024/04/01 00:30:26;;;;;;;24.50;5.00;;;;;;;14.84;64.36;97484.25;109493;1253;66587;-72
2024/04/01 00:32:52;;;;;;;25.50;5.30;;;;;;;14.81;64.49;97479.22;109505;1253;59823;-74
2024/04/01 00:35:19;;;;;;;25.80;5.00;;;;;;;14.79;64.57;97481.06;109461;1254;60714;-74
2024/04/01 00:37:45;;;;;;;25.20;5.60;;;;;;;14.76;64.93;97478.95;109516;1253;60029;-73
2024/04/01 00:40:11;;;;;;;28.30;4.60;;;;;;;14.69;65.22;97479.52;109174;1253;59925;-74
2024/04/01 00:42:38;;;;;;;24.40;4.80;;;;;;;14.62;65.53;97475.08;109531;1253;60125;-73
2024/04/01 00:45:05;;;;;;;29.50;4.80;;;;;;;14.55;65.85;97476.85;109477;1253;59786;-73
2024/04/01 00:47:31;;;;;;;33.30;6.20;;;;;;;14.49;66.04;97476.23;109502;1253;64192;-74
2024/04/01 00:49:58;;;;;;;21.60;4.80;;;;;;;14.44;66.11;97481.17;109477;1253;59714;-74
2024/04/01 00:52:27;;;;;;;23.60;5.70;;;;;;;14.41;66.23;97485.83;109499;1253;59851;-74
2024/04/01 00:54:55;;;;;;;27.80;4.50;;;;;;;14.34;66.36;97488.42;109471;1254;65423;-73
2024/04/01 00:57:23;;;;;;;21.20;3.80;;;;;;;14.24;66.78;97484.95;109483;1253;59766;-73
2024/04/01 00:59:51;;;;;;;25.00;4.90;;;;;;;14.23;66.92;97475.04;109441;1254;63790;-73
2024/04/01 01:02:20;;;;;;;28.20;4.90;;;;;;;14.24;67.29;97473.23;109444;1257;59904;-74
2024/04/01 01:04:48;;;;;;;17.10;4.10;;;;;;;14.20;67.54;97470.91;109348;1253;59857;-74
2024/04/01 01:07:15;;;;;;;25.60;5.50;;;;;;;14.16;67.68;97478.53;109531;1253;66874;-73
2024/04/01 01:09:42;;;;;;;28.70;4.80;;;;;;;14.11;67.93;97477.84;109497;1253;61429;-73
2024/04/01 01:12:09;;;;;;;19.00;4.30;;;;;;;14.08;68.20;97481.35;109484;1253;64077;-72
2024/04/01 01:14:35;;;;;;;24.10;4.50;;;;;;;14.04;68.44;97489.63;109311;1253;59846;-73
2024/04/01 01:17:01;;;;;;;20.60;4.10;;;;;;;13.95;68.70;97494.25;109218;1253;59866;-73
2024/04/01 01:19:28;;;;;;;16.10;3.90;;;;;;;13.84;68.90;97497.09;109492;1253;59834;-72
2024/04/01 01:22:06;;;;;;;20.20;5.20;;;;;;;13.71;69.20;97499.80;109389;1254;59996;-74
2024/04/01 01:24:33;;;;;;;21.70;4.40;;;;;;;13.59;69.43;97499.96;109520;1255;62523;-73
2024/04/01 01:26:59;;;;;;;20.00;4.40;;;;;;;13.51;69.69;97506.13;109514;1253;59879;-72
2024/04/01 01:29:29;;;;;;;23.30;4.90;;;;;;;13.49;70.05;97507.98;109513;1254;59693;-76
2024/04/01 01:32:00;;;;;;;23.90;4.70;;;;;;;13.46;70.24;97511.02;109501;1255;67807;-73
2024/04/01 01:34:28;;;;;;;21.70;5.40;;;;;;;13.38;70.81;97516.45;109510;1253;60386;-73
2024/04/01 01:36:55;;;;;;;20.40;4.10;;;;;;;13.28;70.95;97515.70;109496;1254;64607;-74
2024/04/01 01:39:22;;;;;;;18.60;5.10;;;;;;;13.19;71.06;97516.38;109482;1254;59813;-74
2024/04/01 01:41:48;;;;;;;25.40;4.60;;;;;;;13.12;71.37;97509.06;109522;1257;60357;-74
2024/04/01 01:44:15;;;;;;;24.60;4.80;;;;;;;13.05;71.79;97506.75;109508;1253;59879;-73
2024/04/01 01:46:42;;;;;;;19.00;5.00;;;;;;;12.98;72.10;97501.02;109503;1253;59821;-73
2024/04/01 01:49:08;;;;;;;26.50;5.20;;;;;;;12.90;72.91;97500.52;109452;1254;59907;-73
2024/04/01 01:51:34;;;;;;;22.60;5.00;;;;;;;12.87;74.19;97494.62;109518;1253;59860;-74
2024/04/01 01:54:00;;;;;;;21.10;6.30;;;;;;;12.90;74.96;97490.71;109491;1256;60322;-73
2024/04/01 01:56:27;;;;;;;24.00;4.90;;;;;;;12.97;75.62;97486.73;109514;1253;60076;-75
2024/04/01 01:58:53;;;;;;;26.20;4.80;;;;;;;13.09;76.16;97477.83;109522;1254;60084;-74
2024/04/01 02:01:19;;;;;;;28.50;4.40;;;;;;;13.23;76.07;97469.99;109520;1253;59938;-75
2024/04/01 02:03:46;;;;;;;21.40;5.10;;;;;;;13.35;76.18;97463.36;109464;1254;60107;-76
2024/04/01 02:06:15;;;;;;;23.40;4.20;;;;;;;13.49;75.78;97466.02;109532;1254;59855;-74
2024/04/01 02:08:41;;;;;;;20.80;4.10;;;;;;;13.59;75.67;97470.04;109470;1253;67097;-73
2024/04/01 02:11:12;;;;;;;28.70;5.30;;;;;;;13.65;75.62;97472.80;109531;1254;59791;-74
2024/04/01 02:13:39;;;;;;;22.90;5.10;;;;;;;13.71;75.41;97472.89;109449;1253;62793;-73
2024/04/01 02:16:08;;;;;;;25.90;4.60;;;;;;;13.75;75.31;97470.90;109448;1253;59780;-73
2024/04/01 02:18:35;;;;;;;20.00;4.40;;;;;;;13.78;75.18;97465.86;109391;1254;59806;-74
2024/04/01 02:21:02;;;;;;;22.30;4.20;;;;;;;13.83;75.06;97467.83;109520;1253;66741;-73
2024/04/01 02:23:31;;;;;;;25.90;4.90;;;;;;;13.87;74.75;97467.16;109513;1254;60096;-72
2024/04/01 02:26:03;;;;;;;24.30;3.90;;;;;;;13.87;74.52;97463.02;109440;1254;64236;-73
2024/04/01 02:28:30;;;;;;;27.90;5.00;;;;;;;13.86;74.30;97462.05;109469;1253;59903;-75
2024/04/01 02:30:57;;;;;;;24.50;4.30;;;;;;;13.84;74.38;97461.20;109479;1254;59896;-74
2024/04/01 02:33:23;;;;;;;26.20;5.80;;;;;;;13.81;74.37;97457.90;109327;1253;65286;-73
2024/04/01 02:35:52;;;;;;;22.50;4.50;;;;;;;13.78;74.36;97456.41;109486;1256;59785;-74
2024/04/01 02:38:19;;;;;;;30.00;4.70;;;;;;;13.75;74.56;97459.92;109437;1254;64155;-73
2024/04/01 02:40:46;;;;;;;24.40;4.70;;;;;;;13.72;74.82;97457.73;109497;1253;60078;-74
2024/04/01 02:43:13;;;;;;;22.30;4.80;;;;;;;13.69;74.95;97453.83;109463;1253;59871;-73
2024/04/01 02:45:40;;;;;;;24.70;4.10;;;;;;;13.69;74.94;97452.01;109495;1252;65330;-73
2024/04/01 02:48:07;;;;;;;26.10;3.80;;;;;;;13.70;74.83;97453.55;109499;1254;60234;-74
2024/04/01 02:50:34;;;;;;;24.50;4.50;;;;;;;13.69;74.63;97451.80;109488;1254;64094;-74
2024/04/01 02:53:01;;;;;;;29.60;5.20;;;;;;;13.70;74.80;97450.33;109471;1253;59762;-74
2024/04/01 02:55:27;;;;;;;22.80;4.00;;;;;;;13.71;74.61;97438.61;109503;1253;59984;-75
2024/04/01 02:57:53;;;;;;;22.00;4.60;;;;;;;13.72;74.39;97435.11;109492;1253;60149;-74
2024/04/01 03:00:20;;;;;;;20.10;3.90;;;;;;;13.73;74.12;97441.47;109482;1254;59954;-72
2024/04/01 03:02:47;;;;;;;24.40;4.90;;;;;;;13.72;74.00;97443.81;109403;1253;64144;-74
2024/04/01 03:05:15;;;;;;;26.50;4.30;;;;;;;13.72;73.81;97440.30;109486;1253;59766;-74
2024/04/01 03:07:42;;;;;;;25.00;5.40;;;;;;;13.72;73.87;97436.02;109422;1253;59874;-73
2024/04/01 03:10:11;;;;;;;21.80;4.10;;;;;;;13.73;73.92;97439.29;109530;1253;66959;-72
2024/04/01 03:12:39;;;;;;;26.90;5.40;;;;;;;13.71;74.04;97434.04;109466;1254;60018;-74
2024/04/01 03:15:07;;;;;;;24.20;4.90;;;;;;;13.67;74.27;97432.61;109503;1253;64271;-75
2024/04/01 03:17:33;;;;;;;31.10;4.00;;;;;;;13.65;74.59;97429.96;109458;1254;59788;-73
2024/04/01 03:19:59;;;;;;;23.80;5.80;;;;;;;13.63;74.51;97432.36;109300;1253;60066;-73
2024/04/01 03:22:26;;;;;;;20.90;4.40;;;;;;;13.59;74.75;97429.83;109502;1254;66562;-73
2024/04/01 03:24:55;;;;;;;27.80;4.40;;;;;;;13.60;75.05;97428.52;109534;1254;59789;-73
2024/04/01 03:27:22;;;;;;;27.00;7.20;;;;;;;13.60;75.23;97431.73;109467;1254;62905;-73
2024/04/01 03:29:48;;;;;;;22.30;4.00;;;;;;;13.59;75.33;97435.05;109115;1254;59963;-74
2024/04/01 03:32:16;;;;;;;26.20;4.70;;;;;;;13.58;75.56;97439.63;109506;1254;59806;-72
2024/04/01 03:34:47;;;;;;;20.10;4.30;;;;;;;13.58;75.77;97437.83;109471;1253;66815;-73
2024/04/01 03:37:14;;;;;;;21.60;5.00;;;;;;;13.53;75.43;97437.02;109529;1254;60142;-74
2024/04/01 03:39:44;;;;;;;28.30;5.60;;;;;;;13.46;75.87;97428.31;109524;1252;63968;-73
2024/04/01 03:42:11;;;;;;;;;;;;;;;13.37;76.25;97416.41;109515;1253;59787;-74
2024/04/01 03:44:37;;;;;;;22.80;4.90;;;;;;;13.29;76.50;97410.53;109534;1254;60173;-73
2024/04/01 03:47:03;;;;;;;27.90;5.50;;;;;;;13.21;77.06;97410.93;109227;1253;66874;-74
2024/04/01 03:49:30;;;;;;;29.60;6.10;;;;;;;13.14;78.23;97411.80;109477;1253;60593;-75
2024/04/01 03:51:57;;;;;;;23.10;5.20;;;;;;;13.16;79.87;97413.27;109497;1252;59828;-74
2024/04/01 03:54:23;;;;;;;40.90;6.50;;;;;;;13.25;81.47;97411.67;109349;1253;60118;-74
2024/04/01 03:56:49;;;;;;;29.90;5.40;;;;;;;13.38;81.67;97409.41;109489;1253;59754;-73
2024/04/01 03:59:16;;;;;;;36.60;7.40;;;;;;;13.46;81.53;97412.44;109517;1253;59941;-73
2024/04/01 04:01:44;;;;;;;31.70;6.10;;;;;;;13.55;81.74;97418.66;109508;1253;59861;-74
2024/04/01 04:04:11;;;;;;;44.80;8.10;;;;;;;13.64;81.83;97418.64;109492;1252;64128;-74
2024/04/01 04:06:38;;;;;;;34.00;6.60;;;;;;;13.73;81.72;97424.46;109468;1254;59768;-75
2024/04/01 04:09:04;;;;;;;38.10;7.20;;;;;;;13.81;81.67;97423.06;109537;1253;59829;-74
2024/04/01 04:11:31;;;;;;;37.50;7.60;;;;;;;13.90;82.07;97423.73;109526;1254;60183;-74
2024/04/01 04:14:02;;;;;;;40.80;8.40;;;;;;;14.06;82.03;97424.73;109542;1253;59794;-74
2024/04/01 04:16:29;;;;;;;50.20;7.70;;;;;;;14.20;81.76;97430.81;109498;1253;64093;-73
2024/04/01 04:18:55;;;;;;;54.30;9.30;;;;;;;14.24;81.17;97429.23;109517;1253;59818;-73
2024/04/01 04:21:22;;;;;;;45.50;7.10;;;;;;;14.24;80.95;97422.13;109515;1253;59837;-73
2024/04/01 04:23:48;;;;;;;48.30;8.20;;;;;;;14.23;81.25;97420.00;109537;1253;59832;-74
2024/04/01 04:26:14;;;;;;;44.00;7.40;;;;;;;14.29;81.79;97423.17;109492;1253;59760;-73
2024/04/01 04:28:40;;;;;;;45.30;7.90;;;;;;;14.43;81.97;97417.18;109483;1253;59849;-74
2024/04/01 04:31:07;;;;;;;48.30;7.80;;;;;;;14.61;81.85;97409.52;109403;1252;60253;-74
2024/04/01 04:33:33;;;;;;;45.10;8.90;;;;;;;14.87;81.14;97406.41;109496;1254;59787;-74
2024/04/01 04:35:59;;;;;;;39.20;7.60;;;;;;;15.03;80.50;97404.41;109523;1254;59893;-74
2024/04/01 04:38:26;;;;;;;51.10;9.10;;;;;;;15.18;79.88;97399.70;109528;1252;59787;-74
2024/04/01 04:40:52;;;;;;;43.90;9.20;;;;;;;15.29;79.21;97397.79;109526;1252;59802;-75
2024/04/01 04:43:18;;;;;;;39.30;8.10;;;;;;;15.35;78.94;97393.84;109532;1253;59784;-73
2024/04/01 04:45:48;;;;;;;46.70;8.20;;;;;;;15.42;78.54;97383.59;109518;1252;60190;-74
2024/04/01 04:48:15;;;;;;;42.60;7.60;;;;;;;15.50;78.08;97366.41;109517;1253;74756;-75
2024/04/01 04:50:41;;;;;;;48.60;8.70;;;;;;;15.54;78.05;97365.73;109246;1254;60190;-73
2024/04/01 04:53:08;;;;;;;42.70;8.00;;;;;;;15.56;77.90;97369.41;109463;1253;59951;-74
2024/04/01 04:55:34;;;;;;;49.70;8.80;;;;;;;15.59;77.68;97369.50;109486;1254;59787;-75
2024/04/01 04:58:00;;;;;;;48.70;8.80;;;;;;;15.62;77.59;97364.11;109522;1253;59789;-74
2024/04/01 05:00:27;;;;;;;45.70;8.40;;;;;;;15.64;77.62;97361.22;109473;1253;59813;-73
2024/04/01 05:02:53;;;;;;;48.40;8.00;;;;;;;15.66;77.51;97362.53;109518;1253;60339;-73
2024/04/01 05:05:19;;;;;;;40.30;7.60;;;;;;;15.70;77.41;97362.60;109527;1253;59952;-74
2024/04/01 05:07:48;;;;;;;55.30;8.40;;;;;;;15.75;77.29;97355.31;109522;1252;59873;-73
2024/04/01 05:10:15;;;;;;;36.90;7.90;;;;;;;15.88;76.96;97354.83;109233;1253;59886;-74
2024/04/01 05:12:42;;;;;;;49.80;8.80;;;;;;;16.06;76.42;97352.90;109474;1253;66799;-73
2024/04/01 05:15:09;;;;;;;48.90;9.10;;;;;;;16.36;75.68;97352.80;109523;1253;60090;-74
2024/04/01 05:17:36;;;;;;;51.70;10.20;;;;;;;16.72;74.85;97342.50;109509;1252;62823;-74
2024/04/01 05:20:06;;;;;;;48.40;9.20;;;;;;;17.03;73.98;97330.36;109521;1253;59828;-74
2024/04/01 05:22:32;;;;;;;49.20;9.60;;;;;;;17.25;73.42;97324.23;109494;1253;59880;-73
2024/04/01 05:24:58;;;;;;;42.40;8.90;;;;;;;17.38;73.15;97319.17;109364;1254;59858;-74
2024/04/01 05:27:25;;;;;;;44.90;9.70;;;;;;;17.45;72.85;97316.80;109379;1252;187126;-74
2024/04/01 05:30:05;;;;;;;48.90;8.80;;;;;;;17.60;72.53;97320.23;109360;1253;60136;-73
2024/04/01 05:32:33;;;;;;;45.10;8.40;;;;;;;17.71;71.90;97322.20;109478;1253;59851;-73
2024/04/01 05:35:00;;;;;;;48.80;9.70;;;;;;;17.84;71.46;97325.74;109391;1253;59773;-73
2024/04/01 05:37:27;;;;;;;47.60;8.90;;;;;;;17.97;70.89;97329.88;109353;1253;65422;-72
2024/04/01 05:39:54;;;;;;;41.40;8.10;;;;;;;18.04;70.41;97329.95;109503;1253;59754;-74
2024/04/01 05:42:21;;;;;;;51.50;9.20;;;;;;;18.04;70.35;97331.70;109523;1253;64089;-73
2024/04/01 05:44:48;;;;;;;49.30;8.50;;;;;;;18.10;70.12;97327.70;109246;1253;59947;-74
2024/04/01 05:47:15;;;;;;;45.10;9.80;;;;;;;18.15;69.55;97318.79;109501;1252;60033;-74
2024/04/01 05:49:41;;;;;;;54.70;9.60;;;;;;;18.12;69.26;97309.55;109471;1252;66900;-73
2024/04/01 05:52:08;;;;;;;46.50;8.80;;;;;;;18.04;69.26;97316.06;109543;1253;60778;-73
2024/04/01 05:54:35;;;;;;;51.60;10.00;;;;;;;17.95;69.47;97327.53;109501;1252;60225;-75
2024/04/01 05:57:01;;;;;;;45.10;10.40;;;;;;;17.86;69.41;97329.05;109448;1253;59752;-74
2024/04/01 05:59:28;;;;;;;49.80;10.40;;;;;;;17.79;69.52;97339.81;109478;1253;59767;-72
2024/04/01 06:01:58;;;;;;;43.90;8.50;;;;;;;17.72;69.54;97347.23;109507;1253;65655;-73
2024/04/01 06:04:25;;;;;;;47.80;9.20;;;;;;;17.68;69.57;97341.02;109219;1252;60089;-74
2024/04/01 06:06:52;;;;;;;40.90;10.00;;;;;;;17.64;69.60;97343.30;109488;1252;65101;-73
2024/04/01 06:09:18;;;;;;;41.80;8.90;;;;;;;17.61;69.42;97348.65;109516;1253;60129;-72
2024/04/01 06:11:45;;;;;;;41.30;8.80;;;;;;;17.60;69.33;97364.80;109473;1253;59923;-74
2024/04/01 06:14:11;;;;;;;48.90;10.00;;;;;;;17.61;69.39;97375.62;109492;1252;68101;-73
2024/04/01 06:16:38;;;;;;;50.00;8.70;;;;;;;17.64;69.22;97393.94;109487;1253;59812;-73
2024/04/01 06:19:05;;;;;;;49.40;9.70;;;;;;;17.67;68.95;97416.00;109502;1253;64166;-73
2024/04/01 06:21:32;;;;;;;39.70;8.40;;;;;;;17.70;68.84;97408.83;109369;1252;60039;-74
2024/04/01 06:23:59;;;;;;;47.80;9.20;;;;;;;17.71;69.01;97383.67;109502;1252;59947;-72
2024/04/01 06:26:26;;;;;;;45.20;9.00;;;;;;;17.72;68.83;97390.94;109497;1253;65550;-73
2024/04/01 06:28:53;;;;;;;50.20;9.10;;;;;;;17.74;68.81;97390.98;109086;1252;59822;-72
2024/04/01 06:31:20;;;;;;;50.60;10.60;;;;;;;17.78;68.75;97384.95;109447;1252;64079;-75
2024/04/01 06:33:46;;;;;;;49.10;9.50;;;;;;;17.81;68.65;97374.13;109504;1252;59819;-74
2024/04/01 06:36:13;;;;;;;53.20;8.40;;;;;;;17.81;68.80;97363.98;109507;1253;59622;-72
2024/04/01 06:38:39;;;;;;;45.40;9.00;;;;;;;17.83;68.73;97357.48;109516;1252;60061;-73
2024/04/01 06:41:06;;;;;;;50.80;11.00;;;;;;;17.88;68.54;97346.98;109542;1253;60795;-74
2024/04/01 06:43:33;;;;;;;44.30;9.30;;;;;;;17.96;68.52;97342.01;109314;1253;59980;-72
2024/04/01 06:46:00;;;;;;;42.00;8.10;;;;;;;18.03;68.13;97345.52;109363;1252;59821;-73
2024/04/01 06:48:27;;;;;;;47.60;9.10;;;;;;;18.05;67.72;97344.39;109477;1253;59881;-74
2024/04/01 06:50:54;;;;;;;39.70;7.30;;;;;;;18.12;67.25;97336.84;109495;1252;66744;-74
2024/04/01 06:53:21;;;;;;;42.60;9.70;;;;;;;18.33;67.23;97325.35;109547;1253;59777;-74
2024/04/01 06:55:48;;;;;;;43.50;8.90;;;;;;;18.65;66.92;97320.62;109508;1253;65367;-73
2024/04/01 06:58:15;;;;;;;36.10;8.20;;;;;;;19.04;66.82;97317.95;109481;1252;60139;-74
2024/04/01 07:00:41;;;;;;;39.60;10.40;;;;;;;19.48;66.55;97305.77;109532;1252;60086;-74
2024/04/01 07:03:08;;;;;;;44.20;10.50;;;;;;;19.87;65.69;97285.27;109480;1253;66610;-72
2024/04/01 07:05:34;;;;;;;47.90;9.50;;;;;;;20.08;64.60;97269.69;109246;1253;60165;-73
2024/04/01 07:08:01;;;;;;;45.40;8.30;;;;;;;20.21;63.81;97265.59;109496;1252;59898;-73
2024/04/01 07:10:29;;;;;;;45.70;9.10;;;;;;;20.29;62.97;97269.34;109512;1253;59834;-72
2024/04/01 07:12:56;;;;;;;44.60;9.50;;;;;;;20.43;62.29;97278.23;109483;1252;59984;-73
2024/04/01 07:15:23;;;;;;;45.60;10.00;;;;;;;20.66;61.60;97283.33;109515;1252;66748;-75
2024/04/01 07:17:49;;;;;;;43.50;9.60;;;;;;;20.88;61.42;97289.20;109563;1252;60170;-74
2024/04/01 07:20:15;;;;;;;41.70;9.00;;;;;;;21.19;61.36;97293.69;109313;1253;59843;-74
2024/04/01 07:22:42;;;;;;;49.40;11.20;;;;;;;21.58;60.87;97300.59;109454;1252;59769;-72
2024/04/01 07:25:08;;;;;;;47.20;10.00;;;;;;;21.84;60.07;97312.01;109538;1253;59956;-74
2024/04/01 07:27:35;;;;;;;44.30;8.90;;;;;;;22.05;59.65;97315.23;109480;1253;59749;-73
2024/04/01 07:30:06;;;;;;;46.00;9.50;;;;;;;22.22;59.27;97313.05;109543;1252;59850;-74
2024/04/01 07:32:34;;;;;;;47.00;10.20;;;;;;;22.35;58.46;97313.28;109458;1252;64142;-74
2024/04/01 07:35:02;;;;;;;46.60;9.20;;;;;;;22.51;57.40;97315.14;109204;1254;59865;-72
2024/04/01 07:37:29;;;;;;;44.70;9.10;;;;;;;22.72;56.90;97314.69;109490;1253;59779;-72
2024/04/01 07:39:56;;;;;;;42.70;10.50;;;;;;;22.83;56.30;97321.02;109539;1253;68139;-73
2024/04/01 07:42:22;;;;;;;47.10;10.30;;;;;;;22.92;55.92;97323.27;109542;1252;59782;-74
2024/04/01 07:44:50;;;;;;;44.30;10.00;;;;;;;23.06;55.31;97320.71;109496;1253;59795;-74
2024/04/01 07:47:17;;;;;;;42.10;9.00;;;;;;;23.06;53.87;97317.73;109487;1253;59835;-72
2024/04/01 07:49:43;;;;;;;46.70;9.40;;;;;;;23.01;53.60;97315.60;109529;1252;60648;-74
2024/04/01 07:52:10;;;;;;;44.90;9.40;;;;;;;22.99;53.95;97309.68;109473;1253;59863;-76
2024/04/01 07:54:36;;;;;;;42.40;8.30;;;;;;;22.96;54.27;97308.48;109534;1252;59931;-74
2024/04/01 07:57:03;;;;;;;47.30;9.30;;;;;;;22.93;53.71;97305.86;109505;1253;59804;-73
2024/04/01 07:59:30;;;;;;;51.50;10.40;;;;;;;22.85;53.51;97299.41;109463;1252;60029;-73
2024/04/01 08:01:57;;;;;;;41.70;8.90;;;;;;;22.78;53.74;97289.86;109487;1253;59876;-73
2024/04/01 08:04:24;;;;;;;46.50;10.10;;;;;;;22.76;53.85;97279.40;109486;1253;65287;-73
2024/04/01 08:06:51;;;;;;;48.10;10.30;;;;;;;22.73;53.92;97284.94;109314;1253;59821;-73
2024/04/01 08:09:17;;;;;;;42.20;9.40;;;;;;;22.75;54.24;97276.44;109505;1253;64702;-74
2024/04/01 08:11:46;;;;;;;46.70;9.40;;;;;;;22.79;53.55;97275.70;109487;1253;59824;-72
2024/04/01 08:14:12;;;;;;;49.00;9.80;;;;;;;22.78;53.63;97273.64;109461;1252;61407;-77
2024/04/01 08:16:42;;;;;;;41.00;8.60;;;;;;;22.76;53.13;97269.62;109533;1253;59818;-73
2024/04/01 08:19:09;;;;;;;43.10;8.50;;;;;;;22.68;53.21;97269.27;109534;1252;60327;-74
2024/04/01 08:21:36;;;;;;;49.60;9.70;;;;;;;22.69;53.45;97267.34;109141;1252;63913;-73
2024/04/01 08:24:03;;;;;;;46.40;9.90;;;;;;;22.74;53.56;97262.45;109216;1252;59906;-74
2024/04/01 08:26:30;;;;;;;40.60;9.40;;;;;;;22.79;53.35;97254.34;109544;1252;59960;-72
2024/04/01 08:28:57;;;;;;;46.80;8.30;;;;;;;22.85;53.30;97246.39;109489;1253;59817;-73
2024/04/01 08:31:23;;;;;;;51.50;10.50;;;;;;;22.91;53.07;97242.27;109535;1253;59789;-74
2024/04/01 08:33:50;;;;;;;50.70;9.20;;;;;;;22.93;53.08;97239.25;109476;1252;59827;-74
2024/04/01 08:36:17;;;;;;;48.00;10.40;;;;;;;22.89;52.10;97238.19;109452;1252;59773;-75
2024/04/01 08:38:44;;;;;;;52.50;9.60;;;;;;;22.85;51.45;97234.64;109511;1252;59839;-73
2024/04/01 08:41:15;;;;;;;53.10;10.30;;;;;;;22.86;51.01;97228.07;109371;1252;66448;-75
2024/04/01 08:43:47;;;;;;;53.20;10.30;;;;;;;23.02;51.18;97226.89;109387;1253;69895;-73
2024/04/01 08:46:14;;;;;;;53.70;10.80;;;;;;;23.22;50.43;97222.98;109486;1253;64068;-72
2024/04/01 08:48:48;;;;;;;52.80;11.00;;;;;;;23.46;50.24;97222.69;109503;1253;59834;-72
2024/04/01 08:51:19;;;;;;;50.90;11.30;;;;;;;23.66;49.55;97220.86;109498;1252;60012;-74
2024/04/01 08:53:53;;;;;;;57.70;11.40;;;;;;;23.71;47.84;97218.92;109470;1253;67781;-75
2024/04/01 08:56:19;;;;;;;57.60;11.50;;;;;;;23.74;48.08;97214.08;109498;1252;60354;-73
2024/04/01 08:58:46;;;;;;;55.40;11.20;;;;;;;23.73;47.54;97216.05;109440;1253;64093;-74
2024/04/01 09:01:12;;;;;;;46.00;9.50;;;;;;;23.66;46.95;97214.81;109510;1252;59726;-74
2024/04/01 09:03:38;;;;;;;51.90;11.20;;;;;;;23.55;46.59;97214.27;109436;1253;59868;-74
2024/04/01 09:06:05;;;;;;;42.70;9.80;;;;;;;23.45;46.73;97215.48;109369;1252;59830;-76
2024/04/01 09:08:31;;;;;;;48.50;11.00;;;;;;;23.42;46.94;97215.61;109499;1253;59689;-72
2024/04/01 09:10:58;;;;;;;47.90;10.70;;;;;;;23.49;47.59;97212.88;109550;1253;59787;-72
2024/04/01 09:13:24;;;;;;;49.50;10.00;;;;;;;23.66;48.08;97206.30;109493;1252;60152;-72
2024/04/01 09:15:51;;;;;;;56.70;9.90;;;;;;;23.80;47.83;97202.98;109448;1252;60118;-75
2024/04/01 09:18:18;;;;;;;47.30;10.50;;;;;;;23.91;48.04;97195.39;109560;1253;59785;-74
2024/04/01 09:20:44;;;;;;;48.40;10.10;;;;;;;23.99;48.08;97193.52;109514;1252;59842;-74
2024/04/01 09:23:11;;;;;;;51.00;12.10;;;;;;;24.02;47.72;97191.48;109470;1252;60175;-73
2024/04/01 09:25:37;;;;;;;58.20;11.00;;;;;;;24.02;47.60;97185.51;109473;1252;59745;-73
2024/04/01 09:28:04;;;;;;;52.90;11.80;;;;;;;24.06;48.02;97184.40;109515;1253;60006;-74
2024/04/01 09:30:30;;;;;;;30.00;9.20;;;;;;;24.09;47.71;97178.94;109528;1253;60104;-73
2024/04/01 09:32:57;;;;;;;58.20;11.20;;;;;;;24.10;47.56;97174.66;109482;1253;60085;-72
2024/04/01 09:35:24;;;;;;;54.60;12.20;;;;;;;24.17;48.13;97166.72;109503;1253;59838;-72
2024/04/01 09:37:51;;;;;;;52.40;10.40;;;;;;;24.25;50.61;97163.86;109480;1253;59782;-74
2024/04/01 09:40:18;;;;;;;46.80;11.20;;;;;;;24.31;47.41;97158.99;109480;1253;59636;-73
2024/04/01 09:42:45;;;;;;;46.00;9.90;;;;;;;24.29;46.64;97157.86;109563;1253;60101;-74
2024/04/01 09:45:12;;;;;;;50.10;11.00;;;;;;;24.25;46.40;97148.13;109503;1253;59774;-72
2024/04/01 09:47:39;;;;;;;48.00;9.70;;;;;;;24.26;46.73;97141.36;109490;1253;64512;-74
2024/04/01 09:50:06;;;;;;;44.50;11.30;;;;;;;24.33;46.26;97137.77;109481;1252;59760;-73
2024/04/01 09:52:33;;;;;;;50.20;11.90;;;;;;;24.40;46.23;97135.64;109466;1252;61170;-72
2024/04/01 09:55:09;;;;;;;50.30;10.60;;;;;;;24.56;44.30;97132.43;109509;1253;66754;-74
2024/04/01 09:57:57;;;;;;;35.60;9.00;;;;;;;24.78;47.07;97126.33;109490;1253;59958;-82
2024/04/01 10:00:31;;;;;;;42.40;9.70;;;;;;;24.96;43.91;97121.69;109547;1253;64186;-84
2024/04/01 10:03:50;;;;;;;50.00;10.80;;;;;;;25.08;45.65;97124.06;109499;1253;59800;-82
2024/04/01 10:06:53;;;;;;;38.80;9.70;;;;;;;25.12;45.87;97123.51;108939;1259;60230;-86
2024/04/01 10:09:37;;;;;;;49.50;8.90;;;;;;;25.16;46.08;97119.67;108916;1259;65714;-84
2024/04/01 10:12:22;;;;;;;41.00;10.20;;;;;;;25.18;44.80;97114.92;108921;1259;59916;-84
2024/04/01 10:15:04;;;;;;;51.10;11.40;;;;;;;25.22;45.04;97122.04;108915;1259;63738;-85
2024/04/01 10:17:50;;;;;;;42.50;9.20;;;;;;;25.29;44.97;97116.00;108939;1259;59883;-87
2024/04/01 10:20:39;;;;;;;41.20;9.10;;;;;;;25.30;44.74;97116.56;108564;1265;60783;-84
2024/04/01 10:23:30;;;;;;;43.60;10.20;;;;;;;25.34;45.29;97112.50;108600;1265;65672;-85
2024/04/01 10:26:27;;;;;;;37.00;8.90;;;;;;;25.38;44.86;97106.04;108630;1265;60552;-87
2024/04/01 10:29:21;;;;;;;41.60;8.40;;;;;;;25.51;44.87;97105.41;108567;1265;62863;-86
2024/04/01 10:32:24;;;;;;;44.60;9.20;;;;;;;25.70;45.14;97107.70;108572;1265;59833;-87
2024/04/01 10:34:53;;;;;;;41.50;9.30;;;;;;;25.83;44.49;97102.66;108607;1265;59902;-85
2024/04/01 10:37:50;;;;;;;33.90;8.60;;;;;;;25.87;43.83;97099.30;108613;1265;66943;-86
2024/04/01 10:40:48;;;;;;;40.00;8.90;;;;;;;25.85;43.52;97106.30;108589;1265;60835;-86
2024/04/01 10:43:41;;;;;;;39.50;8.60;;;;;;;25.89;43.41;97097.76;108756;1260;64087;-85
2024/04/01 10:46:39;;;;;;;41.50;8.60;;;;;;;26.02;43.99;97094.20;108854;1260;59920;-86
2024/04/01 10:49:36;;;;;;;45.80;9.40;;;;;;;26.20;43.52;97090.62;108870;1260;60165;-75
2024/04/01 10:52:35;;;;;;;37.40;8.10;;;;;;;26.31;43.31;97085.10;108851;1260;65929;-75
2024/04/01 10:55:01;;;;;;;39.30;10.10;;;;;;;26.41;42.58;97083.98;108851;1260;69854;-73
2024/04/01 10:58:07;;;;;;;37.90;9.80;;;;;;;26.47;42.63;97084.52;109114;1253;60017;-74
2024/04/01 11:00:58;;;;;;;31.10;8.70;;;;;;;26.52;42.43;97085.36;109379;1253;59966;-73
2024/04/01 11:03:43;;;;;;;33.40;8.60;;;;;;;26.49;41.75;97087.28;109452;1254;60203;-75
2024/04/01 11:06:21;;;;;;;37.70;10.00;;;;;;;26.41;41.75;97084.70;109534;1252;68112;-76
2024/04/01 11:09:04;;;;;;;40.20;9.90;;;;;;;26.46;42.26;97088.98;109491;1253;59798;-74
2024/04/01 11:11:39;;;;;;;30.20;7.20;;;;;;;26.52;41.87;97091.15;109382;1253;63984;-73
2024/04/01 11:14:08;;;;;;;35.50;7.80;;;;;;;26.51;41.71;97088.30;109450;1252;59987;-75
2024/04/01 11:16:38;;;;;;;44.50;10.30;;;;;;;26.54;41.97;97081.67;109473;1252;59740;-75
2024/04/01 11:19:39;;;;;;;35.70;7.20;;;;;;;26.67;42.10;97081.60;109502;1253;66942;-75
2024/04/01 11:22:10;;;;;;;37.10;9.20;;;;;;;26.85;41.61;97074.73;109535;1252;61294;-75
2024/04/01 11:24:50;;;;;;;35.60;7.80;;;;;;;27.08;41.54;97070.96;109364;1252;62877;-75
2024/04/01 11:27:21;;;;;;;;;;;;;;;27.36;41.70;97069.43;109518;1252;59832;-74